sensor_id;sensor_type;location;lat;lon;timestamp;P1;durP1;ratioP1;P2;durP2;ratioP2
30181;SDS011;16990;49.056;9.240;2022-08-21T00:00:42;4.60;;;2.38;;
30181;SDS011;16990;49.056;9.240;2022-08-21T00:03:10;5.28;;;3.22;;
30181;SDS011;16990;49.056;9.240;2022-08-21T00:05:39;8.30;;;3.25;;
30181;SDS011;16990;49.056;9.240;2022-08-21T00:08:10;6.95;;;2.70;;
30181;SDS011;16990;49.056;9.240;2022-08-21T00:10:37;9.90;;;2.85;;
30181;SDS011;16990;49.056;9.240;2022-08-21T00:13:05;7.47;;;3.42;;
30181;SDS011;16990;49.056;9.240;2022-08-21T00:15:34;6.05;;;3.40;;
30181;SDS011;16990;49.056;9.240;2022-08-21T00:18:03;4.03;;;2.92;;
30181;SDS011;16990;49.056;9.240;2022-08-21T00:20:30;4.32;;;3.00;;
30181;SDS011;16990;49.056;9.240;2022-08-21T00:22:58;3.55;;;2.67;;
30181;SDS011;16990;49.056;9.240;2022-08-21T00:25:26;4.93;;;2.20;;
30181;SDS011;16990;49.056;9.240;2022-08-21T00:27:53;8.90;;;3.03;;
30181;SDS011;16990;49.056;9.240;2022-08-21T00:30:21;7.25;;;3.28;;
30181;SDS011;16990;49.056;9.240;2022-08-21T00:32:51;9.43;;;2.95;;
30181;SDS011;16990;49.056;9.240;2022-08-21T00:35:20;6.82;;;3.60;;
30181;SDS011;16990;49.056;9.240;2022-08-21T00:37:49;10.23;;;3.78;;
30181;SDS011;16990;49.056;9.240;2022-08-21T00:40:19;6.88;;;3.13;;
30181;SDS011;16990;49.056;9.240;2022-08-21T00:42:50;8.30;;;2.90;;
30181;SDS011;16990;49.056;9.240;2022-08-21T00:45:17;7.38;;;2.80;;
30181;SDS011;16990;49.056;9.240;2022-08-21T00:47:43;4.93;;;2.70;;
30181;SDS011;16990;49.056;9.240;2022-08-21T00:50:10;6.35;;;2.80;;
30181;SDS011;16990;49.056;9.240;2022-08-21T00:52:37;5.22;;;3.22;;
30181;SDS011;16990;49.056;9.240;2022-08-21T00:55:07;3.75;;;2.53;;
30181;SDS011;16990;49.056;9.240;2022-08-21T00:57:38;6.60;;;2.72;;
30181;SDS011;16990;49.056;9.240;2022-08-21T01:00:11;7.70;;;2.40;;
30181;SDS011;16990;49.056;9.240;2022-08-21T01:02:41;6.07;;;2.50;;
30181;SDS011;16990;49.056;9.240;2022-08-21T01:05:08;3.85;;;2.60;;
30181;SDS011;16990;49.056;9.240;2022-08-21T01:07:35;3.78;;;2.10;;
30181;SDS011;16990;49.056;9.240;2022-08-21T01:10:03;5.55;;;2.58;;
30181;SDS011;16990;49.056;9.240;2022-08-21T01:12:31;4.57;;;2.40;;
30181;SDS011;16990;49.056;9.240;2022-08-21T01:14:58;7.43;;;2.80;;
30181;SDS011;16990;49.056;9.240;2022-08-21T01:17:28;4.05;;;2.25;;
30181;SDS011;16990;49.056;9.240;2022-08-21T01:19:57;7.30;;;2.97;;
30181;SDS011;16990;49.056;9.240;2022-08-21T01:22:25;5.00;;;2.45;;
30181;SDS011;16990;49.056;9.240;2022-08-21T01:24:52;9.68;;;2.70;;
30181;SDS011;16990;49.056;9.240;2022-08-21T01:27:19;10.95;;;2.85;;
30181;SDS011;16990;49.056;9.240;2022-08-21T01:29:48;10.10;;;3.40;;
30181;SDS011;16990;49.056;9.240;2022-08-21T01:32:20;8.05;;;3.65;;
30181;SDS011;16990;49.056;9.240;2022-08-21T01:34:48;8.73;;;3.22;;
30181;SDS011;16990;49.056;9.240;2022-08-21T01:37:17;6.38;;;3.25;;
30181;SDS011;16990;49.056;9.240;2022-08-21T01:39:46;9.00;;;3.63;;
30181;SDS011;16990;49.056;9.240;2022-08-21T01:42:14;8.85;;;3.47;;
30181;SDS011;16990;49.056;9.240;2022-08-21T01:44:41;6.18;;;3.13;;
30181;SDS011;16990;49.056;9.240;2022-08-21T01:47:09;5.28;;;3.03;;
30181;SDS011;16990;49.056;9.240;2022-08-21T01:49:37;10.15;;;3.00;;
30181;SDS011;16990;49.056;9.240;2022-08-21T01:52:05;4.80;;;2.45;;
30181;SDS011;16990;49.056;9.240;2022-08-21T01:54:32;5.13;;;2.70;;
30181;SDS011;16990;49.056;9.240;2022-08-21T01:57:00;4.43;;;2.55;;
30181;SDS011;16990;49.056;9.240;2022-08-21T01:59:29;7.22;;;3.10;;
30181;SDS011;16990;49.056;9.240;2022-08-21T02:01:55;6.97;;;2.83;;
30181;SDS011;16990;49.056;9.240;2022-08-21T02:04:22;4.38;;;2.75;;
30181;SDS011;16990;49.056;9.240;2022-08-21T02:06:49;7.68;;;2.85;;
30181;SDS011;16990;49.056;9.240;2022-08-21T02:09:17;9.82;;;3.42;;
30181;SDS011;16990;49.056;9.240;2022-08-21T02:11:44;6.55;;;2.80;;
30181;SDS011;16990;49.056;9.240;2022-08-21T02:14:12;5.72;;;2.45;;
30181;SDS011;16990;49.056;9.240;2022-08-21T02:16:41;3.88;;;2.42;;
30181;SDS011;16990;49.056;9.240;2022-08-21T02:19:09;4.18;;;2.50;;
30181;SDS011;16990;49.056;9.240;2022-08-21T02:21:36;11.32;;;2.88;;
30181;SDS011;16990;49.056;9.240;2022-08-21T02:24:03;5.50;;;2.70;;
30181;SDS011;16990;49.056;9.240;2022-08-21T02:26:30;5.97;;;2.63;;
30181;SDS011;16990;49.056;9.240;2022-08-21T02:28:57;10.20;;;2.80;;
30181;SDS011;16990;49.056;9.240;2022-08-21T02:31:25;4.28;;;2.60;;
30181;SDS011;16990;49.056;9.240;2022-08-21T02:33:52;5.13;;;2.60;;
30181;SDS011;16990;49.056;9.240;2022-08-21T02:36:18;8.20;;;3.17;;
30181;SDS011;16990;49.056;9.240;2022-08-21T02:38:45;6.85;;;2.97;;
30181;SDS011;16990;49.056;9.240;2022-08-21T02:41:13;4.68;;;2.70;;
30181;SDS011;16990;49.056;9.240;2022-08-21T02:43:42;9.45;;;3.13;;
30181;SDS011;16990;49.056;9.240;2022-08-21T02:46:09;4.82;;;2.33;;
30181;SDS011;16990;49.056;9.240;2022-08-21T02:48:40;4.90;;;2.63;;
30181;SDS011;16990;49.056;9.240;2022-08-21T02:51:07;10.10;;;3.08;;
30181;SDS011;16990;49.056;9.240;2022-08-21T02:53:36;7.18;;;3.55;;
30181;SDS011;16990;49.056;9.240;2022-08-21T02:56:08;8.60;;;2.88;;
30181;SDS011;16990;49.056;9.240;2022-08-21T02:58:38;4.22;;;2.63;;
30181;SDS011;16990;49.056;9.240;2022-08-21T03:01:07;3.47;;;2.80;;
30181;SDS011;16990;49.056;9.240;2022-08-21T03:03:34;6.28;;;2.90;;
30181;SDS011;16990;49.056;9.240;2022-08-21T03:06:04;4.90;;;2.97;;
30181;SDS011;16990;49.056;9.240;2022-08-21T03:08:32;4.90;;;2.92;;
30181;SDS011;16990;49.056;9.240;2022-08-21T03:10:59;13.60;;;4.00;;
30181;SDS011;16990;49.056;9.240;2022-08-21T03:13:26;6.95;;;2.90;;
30181;SDS011;16990;49.056;9.240;2022-08-21T03:15:54;5.78;;;2.65;;
30181;SDS011;16990;49.056;9.240;2022-08-21T03:18:21;3.65;;;2.92;;
30181;SDS011;16990;49.056;9.240;2022-08-21T03:20:48;5.40;;;2.65;;
30181;SDS011;16990;49.056;9.240;2022-08-21T03:23:17;4.82;;;2.75;;
30181;SDS011;16990;49.056;9.240;2022-08-21T03:25:44;5.75;;;3.35;;
30181;SDS011;16990;49.056;9.240;2022-08-21T03:28:12;8.10;;;2.97;;
30181;SDS011;16990;49.056;9.240;2022-08-21T03:30:40;6.15;;;3.25;;
30181;SDS011;16990;49.056;9.240;2022-08-21T03:33:07;6.75;;;2.33;;
30181;SDS011;16990;49.056;9.240;2022-08-21T03:35:34;6.78;;;2.65;;
30181;SDS011;16990;49.056;9.240;2022-08-21T03:38:01;6.15;;;2.85;;
30181;SDS011;16990;49.056;9.240;2022-08-21T03:40:29;7.00;;;2.85;;
30181;SDS011;16990;49.056;9.240;2022-08-21T03:42:56;8.63;;;3.10;;
30181;SDS011;16990;49.056;9.240;2022-08-21T03:45:24;5.10;;;2.75;;
30181;SDS011;16990;49.056;9.240;2022-08-21T03:47:51;6.15;;;3.30;;
30181;SDS011;16990;49.056;9.240;2022-08-21T03:50:20;5.88;;;2.83;;
30181;SDS011;16990;49.056;9.240;2022-08-21T03:52:47;4.50;;;2.90;;
30181;SDS011;16990;49.056;9.240;2022-08-21T03:55:14;9.73;;;3.10;;
30181;SDS011;16990;49.056;9.240;2022-08-21T03:57:42;5.35;;;3.15;;
30181;SDS011;16990;49.056;9.240;2022-08-21T04:00:10;5.63;;;3.15;;
30181;SDS011;16990;49.056;9.240;2022-08-21T04:02:38;6.97;;;3.05;;
30181;SDS011;16990;49.056;9.240;2022-08-21T04:05:06;9.63;;;3.08;;
30181;SDS011;16990;49.056;9.240;2022-08-21T04:07:33;5.70;;;2.92;;
30181;SDS011;16990;49.056;9.240;2022-08-21T04:10:00;4.32;;;2.90;;
30181;SDS011;16990;49.056;9.240;2022-08-21T04:12:27;4.90;;;2.83;;
30181;SDS011;16990;49.056;9.240;2022-08-21T04:14:55;5.97;;;2.67;;
30181;SDS011;16990;49.056;9.240;2022-08-21T04:17:21;4.80;;;2.72;;
30181;SDS011;16990;49.056;9.240;2022-08-21T04:19:48;6.00;;;2.95;;
30181;SDS011;16990;49.056;9.240;2022-08-21T04:22:15;8.80;;;2.95;;
30181;SDS011;16990;49.056;9.240;2022-08-21T04:24:42;7.68;;;3.30;;
30181;SDS011;16990;49.056;9.240;2022-08-21T04:27:09;11.57;;;3.13;;
30181;SDS011;16990;49.056;9.240;2022-08-21T04:29:36;7.53;;;3.33;;
30181;SDS011;16990;49.056;9.240;2022-08-21T04:32:04;4.82;;;3.00;;
30181;SDS011;16990;49.056;9.240;2022-08-21T04:34:31;6.18;;;3.40;;
30181;SDS011;16990;49.056;9.240;2022-08-21T04:36:58;9.73;;;3.13;;
30181;SDS011;16990;49.056;9.240;2022-08-21T04:39:24;3.83;;;3.17;;
30181;SDS011;16990;49.056;9.240;2022-08-21T04:41:51;6.53;;;3.47;;
30181;SDS011;16990;49.056;9.240;2022-08-21T04:44:18;7.50;;;3.35;;
30181;SDS011;16990;49.056;9.240;2022-08-21T04:46:44;7.75;;;3.70;;
30181;SDS011;16990;49.056;9.240;2022-08-21T04:49:12;5.90;;;3.20;;
30181;SDS011;16990;49.056;9.240;2022-08-21T04:51:39;11.50;;;4.05;;
30181;SDS011;16990;49.056;9.240;2022-08-21T04:54:06;10.68;;;3.55;;
30181;SDS011;16990;49.056;9.240;2022-08-21T04:56:37;6.88;;;3.70;;
30181;SDS011;16990;49.056;9.240;2022-08-21T04:59:10;10.75;;;3.88;;
30181;SDS011;16990;49.056;9.240;2022-08-21T05:01:39;4.88;;;3.47;;
30181;SDS011;16990;49.056;9.240;2022-08-21T05:04:08;8.18;;;3.45;;
30181;SDS011;16990;49.056;9.240;2022-08-21T05:06:40;5.22;;;3.08;;
30181;SDS011;16990;49.056;9.240;2022-08-21T05:09:09;4.45;;;3.15;;
30181;SDS011;16990;49.056;9.240;2022-08-21T05:11:40;5.53;;;3.17;;
30181;SDS011;16990;49.056;9.240;2022-08-21T05:14:08;9.27;;;3.97;;
30181;SDS011;16990;49.056;9.240;2022-08-21T05:16:34;4.88;;;3.67;;
30181;SDS011;16990;49.056;9.240;2022-08-21T05:19:01;6.75;;;4.22;;
30181;SDS011;16990;49.056;9.240;2022-08-21T05:21:28;6.38;;;3.55;;
30181;SDS011;16990;49.056;9.240;2022-08-21T05:23:56;8.63;;;3.58;;
30181;SDS011;16990;49.056;9.240;2022-08-21T05:26:22;6.38;;;3.83;;
30181;SDS011;16990;49.056;9.240;2022-08-21T05:28:49;11.35;;;4.18;;
30181;SDS011;16990;49.056;9.240;2022-08-21T05:31:17;7.43;;;4.10;;
30181;SDS011;16990;49.056;9.240;2022-08-21T05:33:43;11.65;;;3.95;;
30181;SDS011;16990;49.056;9.240;2022-08-21T05:36:10;6.60;;;3.58;;
30181;SDS011;16990;49.056;9.240;2022-08-21T05:38:36;9.23;;;3.38;;
30181;SDS011;16990;49.056;9.240;2022-08-21T05:41:05;8.93;;;3.75;;
30181;SDS011;16990;49.056;9.240;2022-08-21T05:43:32;7.28;;;3.72;;
30181;SDS011;16990;49.056;9.240;2022-08-21T05:46:01;7.15;;;4.15;;
30181;SDS011;16990;49.056;9.240;2022-08-21T05:48:28;5.75;;;3.38;;
30181;SDS011;16990;49.056;9.240;2022-08-21T05:50:54;9.85;;;3.47;;
30181;SDS011;16990;49.056;9.240;2022-08-21T05:53:21;4.82;;;3.67;;
30181;SDS011;16990;49.056;9.240;2022-08-21T05:55:49;9.43;;;4.10;;
30181;SDS011;16990;49.056;9.240;2022-08-21T05:58:19;10.25;;;3.78;;
30181;SDS011;16990;49.056;9.240;2022-08-21T06:00:48;13.30;;;3.40;;
30181;SDS011;16990;49.056;9.240;2022-08-21T06:03:17;7.35;;;3.67;;
30181;SDS011;16990;49.056;9.240;2022-08-21T06:05:47;8.23;;;3.45;;
30181;SDS011;16990;49.056;9.240;2022-08-21T06:08:14;13.38;;;4.10;;
30181;SDS011;16990;49.056;9.240;2022-08-21T06:11:01;10.95;;;3.78;;
30181;SDS011;16990;49.056;9.240;2022-08-21T06:13:51;11.60;;;3.97;;
30181;SDS011;16990;49.056;9.240;2022-08-21T06:16:38;10.55;;;3.72;;
30181;SDS011;16990;49.056;9.240;2022-08-21T06:19:25;17.02;;;3.80;;
30181;SDS011;16990;49.056;9.240;2022-08-21T06:22:12;5.13;;;3.53;;
30181;SDS011;16990;49.056;9.240;2022-08-21T06:24:58;13.15;;;3.90;;
30181;SDS011;16990;49.056;9.240;2022-08-21T06:27:45;17.08;;;3.53;;
30181;SDS011;16990;49.056;9.240;2022-08-21T06:30:34;16.77;;;3.78;;
30181;SDS011;16990;49.056;9.240;2022-08-21T06:33:23;11.32;;;3.45;;
30181;SDS011;16990;49.056;9.240;2022-08-21T06:36:10;14.00;;;3.78;;
30181;SDS011;16990;49.056;9.240;2022-08-21T06:38:57;8.20;;;3.17;;
30181;SDS011;16990;49.056;9.240;2022-08-21T06:41:44;9.30;;;4.35;;
30181;SDS011;16990;49.056;9.240;2022-08-21T06:44:31;14.05;;;3.83;;
30181;SDS011;16990;49.056;9.240;2022-08-21T06:47:19;12.40;;;3.03;;
30181;SDS011;16990;49.056;9.240;2022-08-21T06:50:06;15.45;;;4.38;;
30181;SDS011;16990;49.056;9.240;2022-08-21T06:52:58;9.02;;;3.17;;
30181;SDS011;16990;49.056;9.240;2022-08-21T06:55:46;14.95;;;3.90;;
30181;SDS011;16990;49.056;9.240;2022-08-21T06:58:33;9.52;;;3.38;;
30181;SDS011;16990;49.056;9.240;2022-08-21T07:01:20;7.82;;;3.78;;
30181;SDS011;16990;49.056;9.240;2022-08-21T07:04:11;8.35;;;3.22;;
30181;SDS011;16990;49.056;9.240;2022-08-21T07:06:58;7.78;;;3.53;;
30181;SDS011;16990;49.056;9.240;2022-08-21T07:09:45;11.75;;;4.03;;
30181;SDS011;16990;49.056;9.240;2022-08-21T07:12:32;8.85;;;3.50;;
30181;SDS011;16990;49.056;9.240;2022-08-21T07:15:19;17.00;;;3.90;;
30181;SDS011;16990;49.056;9.240;2022-08-21T07:18:05;14.15;;;3.70;;
30181;SDS011;16990;49.056;9.240;2022-08-21T07:20:54;9.93;;;3.95;;
30181;SDS011;16990;49.056;9.240;2022-08-21T07:23:44;14.00;;;4.25;;
30181;SDS011;16990;49.056;9.240;2022-08-21T07:26:32;8.38;;;3.88;;
30181;SDS011;16990;49.056;9.240;2022-08-21T07:29:19;10.45;;;4.40;;
30181;SDS011;16990;49.056;9.240;2022-08-21T07:32:06;8.98;;;4.20;;
30181;SDS011;16990;49.056;9.240;2022-08-21T07:34:53;7.68;;;3.75;;
30181;SDS011;16990;49.056;9.240;2022-08-21T07:37:42;10.98;;;3.70;;
30181;SDS011;16990;49.056;9.240;2022-08-21T07:40:29;10.50;;;3.92;;
30181;SDS011;16990;49.056;9.240;2022-08-21T07:43:16;14.18;;;3.78;;
30181;SDS011;16990;49.056;9.240;2022-08-21T07:46:03;18.95;;;4.45;;
30181;SDS011;16990;49.056;9.240;2022-08-21T07:48:50;15.63;;;4.07;;
30181;SDS011;16990;49.056;9.240;2022-08-21T07:51:37;12.13;;;4.10;;
30181;SDS011;16990;49.056;9.240;2022-08-21T07:54:25;13.88;;;4.35;;
30181;SDS011;16990;49.056;9.240;2022-08-21T07:57:12;13.50;;;3.95;;
30181;SDS011;16990;49.056;9.240;2022-08-21T07:59:59;15.75;;;3.88;;
30181;SDS011;16990;49.056;9.240;2022-08-21T08:02:48;10.90;;;4.13;;
30181;SDS011;16990;49.056;9.240;2022-08-21T08:05:36;11.25;;;4.13;;
30181;SDS011;16990;49.056;9.240;2022-08-21T08:08:24;13.57;;;4.03;;
30181;SDS011;16990;49.056;9.240;2022-08-21T08:11:13;7.05;;;3.58;;
30181;SDS011;16990;49.056;9.240;2022-08-21T08:14:01;11.93;;;4.22;;
30181;SDS011;16990;49.056;9.240;2022-08-21T08:16:49;15.70;;;4.45;;
30181;SDS011;16990;49.056;9.240;2022-08-21T08:19:36;14.32;;;4.43;;
30181;SDS011;16990;49.056;9.240;2022-08-21T08:22:22;11.43;;;4.18;;
30181;SDS011;16990;49.056;9.240;2022-08-21T08:25:11;13.35;;;4.63;;
30181;SDS011;16990;49.056;9.240;2022-08-21T08:28:00;8.32;;;3.10;;
30181;SDS011;16990;49.056;9.240;2022-08-21T08:30:47;8.57;;;3.92;;
30181;SDS011;16990;49.056;9.240;2022-08-21T08:33:34;14.30;;;4.10;;
30181;SDS011;16990;49.056;9.240;2022-08-21T08:36:21;9.13;;;4.90;;
30181;SDS011;16990;49.056;9.240;2022-08-21T08:39:18;9.32;;;4.10;;
30181;SDS011;16990;49.056;9.240;2022-08-21T08:42:07;13.85;;;4.25;;
30181;SDS011;16990;49.056;9.240;2022-08-21T08:44:59;10.30;;;3.90;;
30181;SDS011;16990;49.056;9.240;2022-08-21T08:47:51;10.70;;;4.63;;
30181;SDS011;16990;49.056;9.240;2022-08-21T08:50:45;12.90;;;3.83;;
30181;SDS011;16990;49.056;9.240;2022-08-21T08:53:36;9.38;;;3.70;;
30181;SDS011;16990;49.056;9.240;2022-08-21T08:56:33;4.55;;;3.50;;
30181;SDS011;16990;49.056;9.240;2022-08-21T08:59:20;8.27;;;4.13;;
30181;SDS011;16990;49.056;9.240;2022-08-21T09:02:14;10.85;;;4.55;;
30181;SDS011;16990;49.056;9.240;2022-08-21T09:05:02;12.13;;;4.45;;
30181;SDS011;16990;49.056;9.240;2022-08-21T09:07:53;12.60;;;5.10;;
30181;SDS011;16990;49.056;9.240;2022-08-21T09:11:02;11.90;;;4.63;;
30181;SDS011;16990;49.056;9.240;2022-08-21T09:14:01;9.38;;;4.28;;
30181;SDS011;16990;49.056;9.240;2022-08-21T09:16:59;12.02;;;4.70;;
30181;SDS011;16990;49.056;9.240;2022-08-21T09:19:57;16.92;;;4.65;;
30181;SDS011;16990;49.056;9.240;2022-08-21T09:22:59;11.55;;;4.72;;
30181;SDS011;16990;49.056;9.240;2022-08-21T09:25:59;9.60;;;4.88;;
30181;SDS011;16990;49.056;9.240;2022-08-21T09:28:52;12.15;;;4.32;;
30181;SDS011;16990;49.056;9.240;2022-08-21T09:31:40;7.22;;;3.70;;
30181;SDS011;16990;49.056;9.240;2022-08-21T09:34:29;7.30;;;3.90;;
30181;SDS011;16990;49.056;9.240;2022-08-21T09:37:19;15.90;;;4.45;;
30181;SDS011;16990;49.056;9.240;2022-08-21T09:40:14;8.10;;;4.32;;
30181;SDS011;16990;49.056;9.240;2022-08-21T09:43:06;10.00;;;4.10;;
30181;SDS011;16990;49.056;9.240;2022-08-21T09:46:04;11.27;;;5.22;;
30181;SDS011;16990;49.056;9.240;2022-08-21T09:48:55;9.35;;;3.40;;
30181;SDS011;16990;49.056;9.240;2022-08-21T09:51:49;11.68;;;3.60;;
30181;SDS011;16990;49.056;9.240;2022-08-21T09:54:40;12.43;;;3.78;;
30181;SDS011;16990;49.056;9.240;2022-08-21T09:57:29;12.95;;;3.75;;
30181;SDS011;16990;49.056;9.240;2022-08-21T10:00:26;10.63;;;3.67;;
30181;SDS011;16990;49.056;9.240;2022-08-21T10:03:16;13.57;;;4.25;;
30181;SDS011;16990;49.056;9.240;2022-08-21T10:06:06;9.30;;;4.10;;
30181;SDS011;16990;49.056;9.240;2022-08-21T10:09:03;10.75;;;4.20;;
30181;SDS011;16990;49.056;9.240;2022-08-21T10:11:59;9.18;;;3.08;;
30181;SDS011;16990;49.056;9.240;2022-08-21T10:15:01;7.95;;;3.53;;
30181;SDS011;16990;49.056;9.240;2022-08-21T10:17:58;10.85;;;3.25;;
30181;SDS011;16990;49.056;9.240;2022-08-21T10:20:52;6.90;;;3.22;;
30181;SDS011;16990;49.056;9.240;2022-08-21T10:26:48;10.00;;;3.63;;
30181;SDS011;16990;49.056;9.240;2022-08-21T10:29:45;9.43;;;3.28;;
30181;SDS011;16990;49.056;9.240;2022-08-21T10:32:39;13.95;;;3.28;;
30181;SDS011;16990;49.056;9.240;2022-08-21T10:35:47;11.50;;;3.50;;
30181;SDS011;16990;49.056;9.240;2022-08-21T10:38:58;11.40;;;3.30;;
30181;SDS011;16990;49.056;9.240;2022-08-21T10:41:58;10.27;;;3.42;;
30181;SDS011;16990;49.056;9.240;2022-08-21T10:48:02;10.25;;;2.97;;
30181;SDS011;16990;49.056;9.240;2022-08-21T10:50:52;10.52;;;3.55;;
30181;SDS011;16990;49.056;9.240;2022-08-21T10:53:48;12.30;;;3.25;;
30181;SDS011;16990;49.056;9.240;2022-08-21T10:56:41;16.02;;;3.53;;
30181;SDS011;16990;49.056;9.240;2022-08-21T10:59:32;8.65;;;2.83;;
30181;SDS011;16990;49.056;9.240;2022-08-21T11:02:25;8.05;;;3.25;;
30181;SDS011;16990;49.056;9.240;2022-08-21T11:05:20;10.00;;;3.10;;
30181;SDS011;16990;49.056;9.240;2022-08-21T11:08:12;14.00;;;3.57;;
30181;SDS011;16990;49.056;9.240;2022-08-21T11:11:03;9.85;;;3.10;;
30181;SDS011;16990;49.056;9.240;2022-08-21T11:13:55;17.20;;;4.18;;
30181;SDS011;16990;49.056;9.240;2022-08-21T11:16:48;7.40;;;3.33;;
30181;SDS011;16990;49.056;9.240;2022-08-21T11:19:40;14.45;;;3.15;;
30181;SDS011;16990;49.056;9.240;2022-08-21T11:22:44;6.70;;;3.50;;
30181;SDS011;16990;49.056;9.240;2022-08-21T11:25:37;8.70;;;2.78;;
30181;SDS011;16990;49.056;9.240;2022-08-21T11:28:28;10.82;;;3.97;;
30181;SDS011;16990;49.056;9.240;2022-08-21T11:31:25;6.65;;;2.92;;
30181;SDS011;16990;49.056;9.240;2022-08-21T11:34:27;9.80;;;4.17;;
30181;SDS011;16990;49.056;9.240;2022-08-21T11:37:28;11.75;;;3.00;;
30181;SDS011;16990;49.056;9.240;2022-08-21T11:40:34;10.82;;;3.10;;
30181;SDS011;16990;49.056;9.240;2022-08-21T11:43:34;5.82;;;3.08;;
30181;SDS011;16990;49.056;9.240;2022-08-21T11:46:27;12.02;;;4.90;;
30181;SDS011;16990;49.056;9.240;2022-08-21T11:49:29;16.55;;;7.10;;
30181;SDS011;16990;49.056;9.240;2022-08-21T11:52:29;7.35;;;3.20;;
30181;SDS011;16990;49.056;9.240;2022-08-21T11:55:23;8.68;;;3.63;;
30181;SDS011;16990;49.056;9.240;2022-08-21T11:58:20;7.90;;;3.83;;
30181;SDS011;16990;49.056;9.240;2022-08-21T12:01:12;7.47;;;3.47;;
30181;SDS011;16990;49.056;9.240;2022-08-21T12:04:05;8.43;;;3.17;;
30181;SDS011;16990;49.056;9.240;2022-08-21T12:06:55;12.00;;;3.65;;
30181;SDS011;16990;49.056;9.240;2022-08-21T12:09:51;10.13;;;4.05;;
30181;SDS011;16990;49.056;9.240;2022-08-21T12:12:41;6.78;;;2.88;;
30181;SDS011;16990;49.056;9.240;2022-08-21T12:15:31;7.18;;;3.28;;
30181;SDS011;16990;49.056;9.240;2022-08-21T12:18:22;7.28;;;2.88;;
30181;SDS011;16990;49.056;9.240;2022-08-21T12:21:21;13.10;;;3.65;;
30181;SDS011;16990;49.056;9.240;2022-08-21T12:24:16;8.32;;;3.20;;
30181;SDS011;16990;49.056;9.240;2022-08-21T12:27:13;9.93;;;3.07;;
30181;SDS011;16990;49.056;9.240;2022-08-21T12:30:19;7.13;;;3.00;;
30181;SDS011;16990;49.056;9.240;2022-08-21T12:33:20;6.78;;;3.15;;
30181;SDS011;16990;49.056;9.240;2022-08-21T12:36:11;5.50;;;2.42;;
30181;SDS011;16990;49.056;9.240;2022-08-21T12:39:02;10.32;;;2.67;;
30181;SDS011;16990;49.056;9.240;2022-08-21T12:41:56;4.60;;;2.38;;
30181;SDS011;16990;49.056;9.240;2022-08-21T12:44:47;7.13;;;2.80;;
30181;SDS011;16990;49.056;9.240;2022-08-21T12:47:43;6.93;;;2.85;;
30181;SDS011;16990;49.056;9.240;2022-08-21T12:50:37;8.45;;;2.53;;
30181;SDS011;16990;49.056;9.240;2022-08-21T12:53:29;8.20;;;2.85;;
30181;SDS011;16990;49.056;9.240;2022-08-21T12:56:21;7.57;;;3.13;;
30181;SDS011;16990;49.056;9.240;2022-08-21T12:59:12;5.88;;;2.47;;
30181;SDS011;16990;49.056;9.240;2022-08-21T13:02:00;9.30;;;3.00;;
30181;SDS011;16990;49.056;9.240;2022-08-21T13:04:56;5.57;;;2.95;;
30181;SDS011;16990;49.056;9.240;2022-08-21T13:07:46;7.55;;;2.55;;
30181;SDS011;16990;49.056;9.240;2022-08-21T13:10:34;6.22;;;2.80;;
30181;SDS011;16990;49.056;9.240;2022-08-21T13:13:24;7.10;;;2.85;;
30181;SDS011;16990;49.056;9.240;2022-08-21T13:16:12;7.72;;;3.00;;
30181;SDS011;16990;49.056;9.240;2022-08-21T13:19:05;6.80;;;2.42;;
30181;SDS011;16990;49.056;9.240;2022-08-21T13:21:53;7.70;;;2.85;;
30181;SDS011;16990;49.056;9.240;2022-08-21T13:24:42;6.65;;;2.72;;
30181;SDS011;16990;49.056;9.240;2022-08-21T13:27:29;7.20;;;2.90;;
30181;SDS011;16990;49.056;9.240;2022-08-21T13:30:17;4.97;;;2.83;;
30181;SDS011;16990;49.056;9.240;2022-08-21T13:33:07;11.05;;;2.63;;
30181;SDS011;16990;49.056;9.240;2022-08-21T13:35:57;6.47;;;2.70;;
30181;SDS011;16990;49.056;9.240;2022-08-21T13:38:47;8.95;;;2.38;;
30181;SDS011;16990;49.056;9.240;2022-08-21T13:41:36;7.20;;;2.70;;
30181;SDS011;16990;49.056;9.240;2022-08-21T13:44:31;8.15;;;3.45;;
30181;SDS011;16990;49.056;9.240;2022-08-21T13:47:20;5.18;;;2.53;;
30181;SDS011;16990;49.056;9.240;2022-08-21T13:50:07;15.80;;;3.72;;
30181;SDS011;16990;49.056;9.240;2022-08-21T13:52:59;8.38;;;2.70;;
30181;SDS011;16990;49.056;9.240;2022-08-21T13:55:48;9.10;;;3.17;;
30181;SDS011;16990;49.056;9.240;2022-08-21T13:58:43;6.40;;;3.08;;
30181;SDS011;16990;49.056;9.240;2022-08-21T14:01:32;5.15;;;2.35;;
30181;SDS011;16990;49.056;9.240;2022-08-21T14:04:22;6.03;;;2.20;;
30181;SDS011;16990;49.056;9.240;2022-08-21T14:07:15;5.40;;;2.67;;
30181;SDS011;16990;49.056;9.240;2022-08-21T14:10:04;11.15;;;3.40;;
30181;SDS011;16990;49.056;9.240;2022-08-21T14:12:53;4.18;;;2.42;;
30181;SDS011;16990;49.056;9.240;2022-08-21T14:15:45;11.40;;;3.13;;
30181;SDS011;16990;49.056;9.240;2022-08-21T14:18:43;10.13;;;3.72;;
30181;SDS011;16990;49.056;9.240;2022-08-21T14:21:36;12.35;;;3.20;;
30181;SDS011;16990;49.056;9.240;2022-08-21T14:24:25;4.72;;;2.53;;
30181;SDS011;16990;49.056;9.240;2022-08-21T14:27:15;6.93;;;2.72;;
30181;SDS011;16990;49.056;9.240;2022-08-21T14:30:09;6.43;;;2.67;;
30181;SDS011;16990;49.056;9.240;2022-08-21T14:33:01;7.60;;;2.42;;
30181;SDS011;16990;49.056;9.240;2022-08-21T14:35:50;6.88;;;2.78;;
30181;SDS011;16990;49.056;9.240;2022-08-21T14:38:38;5.63;;;2.88;;
30181;SDS011;16990;49.056;9.240;2022-08-21T14:41:27;8.38;;;3.05;;
30181;SDS011;16990;49.056;9.240;2022-08-21T14:44:15;5.68;;;2.50;;
30181;SDS011;16990;49.056;9.240;2022-08-21T14:47:03;5.13;;;2.40;;
30181;SDS011;16990;49.056;9.240;2022-08-21T14:49:52;8.75;;;2.60;;
30181;SDS011;16990;49.056;9.240;2022-08-21T14:52:40;7.55;;;3.03;;
30181;SDS011;16990;49.056;9.240;2022-08-21T14:55:28;8.43;;;2.92;;
30181;SDS011;16990;49.056;9.240;2022-08-21T14:58:15;6.60;;;2.92;;
30181;SDS011;16990;49.056;9.240;2022-08-21T15:01:02;10.48;;;3.15;;
30181;SDS011;16990;49.056;9.240;2022-08-21T15:03:49;10.35;;;2.92;;
30181;SDS011;16990;49.056;9.240;2022-08-21T15:06:38;8.02;;;3.00;;
30181;SDS011;16990;49.056;9.240;2022-08-21T15:09:25;10.63;;;3.08;;
30181;SDS011;16990;49.056;9.240;2022-08-21T15:12:12;14.75;;;2.80;;
30181;SDS011;16990;49.056;9.240;2022-08-21T15:15:00;11.07;;;2.80;;
30181;SDS011;16990;49.056;9.240;2022-08-21T15:17:47;4.93;;;2.42;;
30181;SDS011;16990;49.056;9.240;2022-08-21T15:20:35;6.57;;;2.78;;
30181;SDS011;16990;49.056;9.240;2022-08-21T15:23:23;5.43;;;3.08;;
30181;SDS011;16990;49.056;9.240;2022-08-21T15:26:10;5.97;;;3.08;;
30181;SDS011;16990;49.056;9.240;2022-08-21T15:28:58;7.07;;;2.15;;
30181;SDS011;16990;49.056;9.240;2022-08-21T15:31:49;4.40;;;1.92;;
30181;SDS011;16990;49.056;9.240;2022-08-21T15:34:38;9.50;;;2.80;;
30181;SDS011;16990;49.056;9.240;2022-08-21T15:37:25;6.07;;;2.92;;
30181;SDS011;16990;49.056;9.240;2022-08-21T15:40:14;4.85;;;2.15;;
30181;SDS011;16990;49.056;9.240;2022-08-21T15:43:02;7.15;;;2.70;;
30181;SDS011;16990;49.056;9.240;2022-08-21T15:45:50;6.43;;;2.75;;
30181;SDS011;16990;49.056;9.240;2022-08-21T15:48:38;4.43;;;2.75;;
30181;SDS011;16990;49.056;9.240;2022-08-21T15:51:24;3.65;;;2.15;;
30181;SDS011;16990;49.056;9.240;2022-08-21T15:54:11;8.52;;;2.38;;
30181;SDS011;16990;49.056;9.240;2022-08-21T15:56:59;5.82;;;2.20;;
30181;SDS011;16990;49.056;9.240;2022-08-21T15:59:47;4.65;;;2.30;;
30181;SDS011;16990;49.056;9.240;2022-08-21T16:02:35;5.25;;;2.35;;
30181;SDS011;16990;49.056;9.240;2022-08-21T16:05:22;7.55;;;2.30;;
30181;SDS011;16990;49.056;9.240;2022-08-21T16:08:09;5.43;;;2.45;;
30181;SDS011;16990;49.056;9.240;2022-08-21T16:10:57;7.35;;;2.47;;
30181;SDS011;16990;49.056;9.240;2022-08-21T16:13:45;7.70;;;2.70;;